Thursday, August 25, 2016
13:19 UTC
  |  Log In   |  Register Free
Airport Search:

John F Kennedy Memorial Airport
(KASX)

John F Kennedy Memorial Airport Diagram
No Airport Diagram Available

FAA data valid effective Jul 21 2016 - Sep 15 2016 (unless otherwise noted).

 
 
 
 
 
 
 
 
 
 
 
 
 
 
Current Aviation Weather for KASX

Weather Summary


The most recent METAR observation for ASX was updated at: 12:53 UTC
METAR for ASX is not available. Closest METAR is for
METAR

METAR KASX 251253Z 23006KT 10SM CLR 16/14 A2996 RMK AO2 SLP146 T01610139

METAR KASX 251153Z 19005KT 10SM CLR 13/12 A2996 RMK AO2 SLP146 T01330122 10156 20122 53004

METAR KASX 251053Z 21006KT 10SM CLR 13/12 A2996 RMK AO2 SLP143 T01280117

METAR KIWD 251256Z 23006KT 10SM CLR 17/13 A2997 RMK AO2 SLP145 T01670133

TAF for ASX is not available.
TAF

KIWD - TAF KIWD 251135Z 2512/2612 24008KT P6SM SKC

KIWD - FM251500 25011G18KT P6SM FEW200

KIWD - FM251800 25016G24KT P6SM SCT045

KIWD - FM260000 27009KT P6SM SCT045

KIWD - FM260800 28005KT P6SM BKN025 AMD LTD TO CLD VIS AND WIND =

GlobalAir.com is loading additional information.
 Current Weather at ASX
56.0 F° (13.3 C°)

South winds at 5.8 mph
Pressure:
29.96 in
Humidity:
93%
Wind:
South at 5.8 mph
Dew Point:
54.0 F° (12.2 C°)
Visibility:
10.00 mi
ASX NOAA Radar




Find All Airport Services Find A Hotel Find A Rental Car Find A Golf Course Find A Restaurant $100 Hamburger



Airport Weather Forecast for KASX

Translated METAR for KASX (1253 UTC)
METAR:
KASX 251253Z AUTO John F Kennedy Memorial, Ashland, WI (KASX). Aug 25, 1253Z, Automated. Wind from 230° at 6 knots, 10 statute miles visibility, Clear Skies, Temperature 16°C, Dewpoint 14°C, Altimeter is 29.96. Remarks: automated station with precipitation discriminator sea level pressure 1014.6 hectopascals hourly temp 16.1°C dewpoint 13.9°C
Conditions at:
KASX (John F Kennedy Memorial, WI) observed 1253 UTC 25 August 2016
Temperature:
56.0 F° (13.3 C°)
Dewpoint:
not reported - refer to area weather report
Pressure:
29.96 Hg
Winds:
South at 5.8 MPH (5 KT)
Visibility:
10.00
Ceiling:
at least 12,000 feet AGL
Clouds:
not reported - refer to area weather report
Remarks:
site is un-manned

Translated TAF for TAF for ASX is not available. Refer to local area forecast.
FBO's on the Field
FBO Company Facility Photos Services Transportation Aviation Fuel Prices: Prices include tax
Catering Weather Repair Courtesy Rental Type 100LL JetA JetA+ MOGAS 8087
 
John F Kennedy Memorial Airport

This FBO has not yet been rated
FS:Phillips 66
Last Updated: Jul-26
Login to update fuel prices
SS:
Contact John F Kennedy Memorial AirportMore FBO Information
 
Add another FBO Facility Photos Catering Weather Repair Courtesy Rental Type 100LL JetA JetA+ MOGAS 8087
Services Transportation Aviation Fuel Prices: Prices include tax


model-print
model-print
model-print
model-print